Time;durP1;ratioP1;P1;durP2;ratioP2;P2;SDS_P1;SDS_P2;PMS_P1;PMS_P2;Temp;Humidity;BMP_temperature;BMP_pressure;BME280_temperature;BME280_humidity;BME280_pressure;Samples;Min_cycle;Max_cycle;Signal;HPM_P1;HPM_P2
2021/04/14 00:00:16;;;;;;;5.93;4.07;;;2.50;33.00;;;;;;5032178;28;20037;-80
2021/04/14 00:02:42;;;;;;;6.30;5.15;;;2.50;34.70;;;;;;5018953;28;20031;-80
2021/04/14 00:05:09;;;;;;;4.32;3.60;;;2.40;22.70;;;;;;5036048;28;20048;-81
2021/04/14 00:07:55;;;;;;;;;;;;;;;;;;;;;
2021/04/14 00:10:42;;;;;;;6.22;4.00;;;2.50;31.70;;;;;;5009518;28;20077;-81
2021/04/14 00:13:34;;;;;;;;;;;;;;;;;;;;;
2021/04/14 00:16:18;;;;;;;4.45;3.53;;;2.40;26.90;;;;;;5016946;28;20053;-82
2021/04/14 00:19:26;;;;;;;8.57;4.43;;;2.40;60.80;;;;;;5014599;28;20054;-82
2021/04/14 00:22:00;;;;;;;6.82;3.67;;;2.40;67.90;;;;;;5015687;28;20023;-83
2021/04/14 00:24:37;;;;;;;4.55;4.15;;;2.30;69.10;;;;;;5024659;28;20018;-83
2021/04/14 00:27:09;;;;;;;5.45;3.45;;;2.30;86.20;;;;;;5014394;28;20011;-82
2021/04/14 00:29:56;;;;;;;5.30;3.25;;;2.20;92.00;;;;;;5006124;28;20053;-80
2021/04/14 00:32:36;;;;;;;5.93;3.72;;;2.30;86.90;;;;;;5012607;28;20030;-81
2021/04/14 00:35:29;;;;;;;5.57;3.63;;;2.30;96.60;;;;;;5001975;28;20023;-80
2021/04/14 00:38:19;;;;;;;4.47;3.30;;;2.20;99.90;;;;;;5017998;28;20030;-82
2021/04/14 00:41:09;;;;;;;7.25;3.75;;;2.20;99.90;;;;;;5009035;28;20042;-81
2021/04/14 00:43:47;;;;;;;5.75;3.97;;;2.20;99.90;;;;;;4969643;28;20019;-81
2021/04/14 00:46:24;;;;;;;6.57;4.07;;;2.20;99.90;;;;;;5016734;28;20026;-81
2021/04/14 00:48:50;;;;;;;6.65;4.10;;;2.10;99.90;;;;;;5011731;28;20065;-83
2021/04/14 00:51:18;;;;;;;4.50;3.33;;;2.10;99.90;;;;;;4991796;28;20027;-83
2021/04/14 00:53:44;;;;;;;6.88;4.15;;;2.00;99.90;;;;;;5034723;28;20025;-82
2021/04/14 00:56:09;;;;;;;4.82;3.53;;;1.90;99.90;;;;;;5022338;28;20031;-82
2021/04/14 00:58:35;;;;;;;3.47;2.60;;;1.90;99.90;;;;;;5014309;28;20014;-82
2021/04/14 01:01:01;;;;;;;6.78;4.95;;;1.90;99.90;;;;;;5019480;28;20002;-82
2021/04/14 01:03:32;;;;;;;5.63;3.90;;;1.90;99.90;;;;;;5023180;28;20037;-82
2021/04/14 01:05:59;;;;;;;;;;;2.00;99.90;;;;;;5021504;28;20019;-82
2021/04/14 01:08:25;;;;;;;8.90;3.47;;;2.00;99.90;;;;;;5024774;28;20027;-81
2021/04/14 01:10:51;;;;;;;3.45;3.20;;;1.90;99.90;;;;;;5016577;28;20033;-82
2021/04/14 01:13:30;;;;;;;8.05;3.65;;;1.90;99.90;;;;;;5012492;28;20031;-82
2021/04/14 01:15:56;;;;;;;6.43;3.58;;;1.80;99.90;;;;;;5015123;28;20052;-81
2021/04/14 01:18:24;;;;;;;5.32;3.95;;;1.80;99.90;;;;;;5011373;28;20490;-81
2021/04/14 01:20:52;;;;;;;4.43;3.17;;;1.70;99.90;;;;;;5004610;28;20027;-80
2021/04/14 01:23:19;;;;;;;5.30;3.75;;;1.70;99.90;;;;;;5008969;28;20030;-82
2021/04/14 01:25:45;;;;;;;6.15;3.47;;;1.70;99.90;;;;;;5005738;28;20038;-81
2021/04/14 01:28:15;;;;;;;7.72;3.90;;;1.70;99.90;;;;;;5018786;28;20036;-80
2021/04/14 01:30:42;;;;;;;7.00;4.20;;;1.70;99.90;;;;;;5029184;28;20455;-82
2021/04/14 01:33:12;;;;;;;6.00;3.83;;;1.70;99.90;;;;;;5006834;28;20041;-81
2021/04/14 01:35:38;;;;;;;5.97;4.55;;;1.70;99.90;;;;;;5015763;28;20030;-81
2021/04/14 01:38:40;;;;;;;7.45;4.03;;;1.60;99.90;;;;;;5007771;28;20006;-81
2021/04/14 01:41:28;;;;;;;5.88;4.03;;;1.60;99.90;;;;;;4987260;28;20022;-82
2021/04/14 01:43:54;;;;;;;7.00;4.20;;;1.60;99.90;;;;;;4996100;28;20026;-82
2021/04/14 01:46:19;;;;;;;6.53;5.45;;;1.60;99.90;;;;;;5007133;28;20052;-82
2021/04/14 01:48:48;;;;;;;9.23;5.15;;;1.70;99.90;;;;;;5016600;28;20018;-81
2021/04/14 01:51:15;;;;;;;7.45;5.57;;;1.70;99.90;;;;;;5017706;28;20026;-81
2021/04/14 01:53:41;;;;;;;5.65;4.90;;;1.80;99.90;;;;;;4985085;28;20041;-81
2021/04/14 01:56:48;;;;;;;7.80;4.97;;;1.80;99.90;;;;;;5008378;28;20062;-82
2021/04/14 01:59:14;;;;;;;9.23;6.82;;;1.60;99.90;;;;;;5005587;28;20046;-82
2021/04/14 02:01:40;;;;;;;10.20;5.00;;;1.60;99.90;;;;;;5025623;28;20071;-83
2021/04/14 02:04:06;;;;;;;14.07;6.80;;;1.60;99.90;;;;;;5009715;28;20023;-82
2021/04/14 02:06:31;;;;;;;7.65;5.88;;;1.50;99.90;;;;;;4999654;28;20026;-82
2021/04/14 02:08:57;;;;;;;9.43;7.20;;;1.40;99.90;;;;;;5020090;28;20037;-82
2021/04/14 02:11:23;;;;;;;7.38;5.28;;;1.40;99.90;;;;;;5009793;28;20033;-82
2021/04/14 02:13:48;;;;;;;8.00;5.22;;;1.40;99.90;;;;;;5006968;28;20111;-80
2021/04/14 02:16:22;;;;;;;7.15;5.75;;;1.40;99.90;;;;;;5017891;28;20034;-82
2021/04/14 02:18:49;;;;;;;9.43;6.97;;;1.30;99.90;;;;;;5007345;28;20026;-82
2021/04/14 02:21:17;;;;;;;16.85;5.63;;;1.30;99.90;;;;;;5007975;28;20025;-83
2021/04/14 02:23:43;;;;;;;6.18;4.65;;;1.20;99.90;;;;;;5011685;28;20019;-82
2021/04/14 02:26:13;;;;;;;11.20;5.97;;;1.20;99.90;;;;;;5011750;28;20033;-82
2021/04/14 02:28:39;;;;;;;10.35;5.78;;;1.20;99.90;;;;;;5009900;28;20018;-83
2021/04/14 02:31:07;;;;;;;10.98;7.03;;;1.20;99.90;;;;;;5015796;28;20026;-82
2021/04/14 02:33:33;;;;;;;13.30;8.32;;;1.10;99.90;;;;;;5014483;28;20048;-82
2021/04/14 02:35:59;;;;;;;8.43;5.35;;;1.10;99.90;;;;;;5008140;28;20033;-83
2021/04/14 02:38:25;;;;;;;10.23;6.78;;;1.20;99.90;;;;;;5009321;28;20086;-83
2021/04/14 02:40:52;;;;;;;7.70;6.90;;;1.10;99.90;;;;;;5012002;28;20026;-82
2021/04/14 02:43:18;;;;;;;8.70;6.80;;;1.10;99.90;;;;;;5010505;28;20109;-82
2021/04/14 02:45:44;;;;;;;7.45;6.28;;;1.10;99.90;;;;;;5010498;28;20046;-81
2021/04/14 02:48:10;;;;;;;9.00;6.03;;;1.10;99.90;;;;;;5002477;28;20081;-81
2021/04/14 02:50:40;;;;;;;8.98;6.03;;;1.10;99.90;;;;;;5019851;28;20034;-81
2021/04/14 02:53:07;;;;;;;8.55;7.32;;;1.10;99.90;;;;;;5017423;28;20034;-79
2021/04/14 02:55:34;;;;;;;9.52;6.85;;;1.10;99.90;;;;;;5010023;28;20014;-83
2021/04/14 02:58:17;;;;;;;12.77;8.57;;;1.10;99.90;;;;;;5025903;28;20064;-81
2021/04/14 03:00:44;;;;;;;10.90;8.55;;;1.10;99.90;;;;;;5018628;28;20037;-83
2021/04/14 03:03:10;;;;;;;11.90;7.78;;;1.10;99.90;;;;;;5011953;28;20034;-82
2021/04/14 03:05:36;;;;;;;12.00;8.95;;;1.10;99.90;;;;;;4992806;28;20034;-81
2021/04/14 03:08:02;;;;;;;10.00;7.95;;;1.00;99.90;;;;;;5010299;28;20026;-82
2021/04/14 03:10:29;;;;;;;11.00;6.95;;;1.00;99.90;;;;;;5013465;28;20021;-81
2021/04/14 03:12:55;;;;;;;11.85;7.05;;;1.00;99.90;;;;;;5013950;28;20081;-82
2021/04/14 03:15:25;;;;;;;13.23;8.65;;;0.90;99.90;;;;;;5021798;28;20029;-81
2021/04/14 03:17:56;;;;;;;12.65;7.20;;;0.90;99.90;;;;;;5017334;28;20113;-84
2021/04/14 03:20:49;;;;;;;10.85;8.15;;;0.90;99.90;;;;;;5020061;28;20026;-83
2021/04/14 03:23:16;;;;;;;13.63;7.10;;;1.00;99.90;;;;;;5001062;28;20031;-83
2021/04/14 03:25:42;;;;;;;10.70;7.25;;;1.00;99.90;;;;;;5014875;28;20034;-82
2021/04/14 03:28:08;;;;;;;14.27;8.15;;;0.90;99.90;;;;;;5024043;28;20049;-80
2021/04/14 03:30:34;;;;;;;10.15;7.72;;;0.90;99.90;;;;;;5006848;28;20029;-79
2021/04/14 03:33:01;;;;;;;9.25;7.93;;;0.90;99.90;;;;;;5021019;28;20042;-80
2021/04/14 03:35:28;;;;;;;14.38;7.40;;;0.80;99.90;;;;;;5018887;28;20030;-81
2021/04/14 03:37:55;;;;;;;8.75;7.20;;;0.80;99.90;;;;;;5010361;28;20018;-83
2021/04/14 03:40:22;;;;;;;9.23;7.47;;;0.80;99.90;;;;;;5011426;28;20037;-83
2021/04/14 03:42:50;;;;;;;11.70;7.65;;;0.80;99.90;;;;;;5018225;28;20094;-83
2021/04/14 03:45:22;;;;;;;13.38;7.97;;;0.80;99.90;;;;;;5014441;28;20022;-83
2021/04/14 03:47:47;;;;;;;11.30;7.80;;;0.70;99.90;;;;;;5014632;28;20030;-81
2021/04/14 03:50:16;;;;;;;16.17;8.00;;;0.80;99.90;;;;;;5018775;28;20042;-82
2021/04/14 03:52:42;;;;;;;11.00;8.07;;;0.70;99.90;;;;;;5025340;28;20034;-83
2021/04/14 03:55:09;;;;;;;10.27;8.07;;;0.70;99.90;;;;;;5017041;28;20018;-82
2021/04/14 03:57:35;;;;;;;15.10;7.82;;;0.80;99.90;;;;;;5019708;28;20037;-82
2021/04/14 04:00:03;;;;;;;11.18;8.00;;;0.70;99.90;;;;;;5020174;28;20011;-81
2021/04/14 04:02:29;;;;;;;9.55;6.70;;;0.80;99.90;;;;;;5003472;28;20019;-81
2021/04/14 04:04:54;;;;;;;15.52;7.63;;;0.70;99.90;;;;;;5021489;28;20011;-82
2021/04/14 04:07:20;;;;;;;9.38;7.10;;;0.80;99.90;;;;;;5020253;28;20049;-81
2021/04/14 04:09:46;;;;;;;8.23;6.50;;;0.70;99.90;;;;;;5020022;28;20019;-81
2021/04/14 04:12:12;;;;;;;11.43;7.43;;;0.60;99.90;;;;;;5004924;28;20023;-83
2021/04/14 04:14:58;;;;;;;8.60;6.85;;;0.70;99.90;;;;;;5015729;28;20037;-80
2021/04/14 04:17:23;;;;;;;9.20;6.72;;;0.80;99.90;;;;;;5009896;28;20022;-81
2021/04/14 04:19:49;;;;;;;8.25;6.68;;;0.90;99.90;;;;;;5019376;28;20025;-81
2021/04/14 04:22:19;;;;;;;14.07;7.22;;;1.00;99.90;;;;;;5020910;28;20015;-81
2021/04/14 04:24:50;;;;;;;9.23;7.35;;;0.90;99.90;;;;;;5027570;28;20022;-82
2021/04/14 04:27:17;;;;;;;9.73;7.38;;;0.80;99.90;;;;;;4984738;28;20030;-80
2021/04/14 04:29:43;;;;;;;12.35;7.18;;;0.80;99.90;;;;;;5018580;28;20023;-82
2021/04/14 04:32:09;;;;;;;15.30;7.90;;;0.90;99.90;;;;;;5019736;28;20068;-82
2021/04/14 04:37:43;;;;;;;11.63;7.43;;;0.90;99.90;;;;;;5002108;28;20037;-82
2021/04/14 04:40:25;;;;;;;14.25;7.10;;;0.70;99.90;;;;;;4999292;28;20058;-80
2021/04/14 04:43:17;;;;;;;16.65;8.73;;;0.70;99.90;;;;;;5016888;28;20082;-81
2021/04/14 04:48:51;;;;;;;11.57;7.78;;;0.70;99.90;;;;;;5001836;28;20092;-81
2021/04/14 04:51:52;;;;;;;11.57;7.60;;;0.80;99.90;;;;;;5015035;28;20094;-82
2021/04/14 04:54:32;;;;;;;9.07;7.22;;;1.00;99.90;;;;;;4937598;28;20047;-80
2021/04/14 04:57:23;;;;;;;16.67;8.93;;;1.20;99.90;;;;;;4998475;28;20030;-84
2021/04/14 05:00:14;;;;;;;11.93;8.68;;;1.30;99.90;;;;;;5011721;28;20030;-81
2021/04/14 05:02:53;;;;;;;11.80;7.55;;;1.50;99.90;;;;;;5016921;28;20030;-83
2021/04/14 05:06:00;;;;;;;;;;;;;;;;;;;;;
2021/04/14 05:08:56;;;;;;;16.10;7.75;;;1.90;99.90;;;;;;5561908;22;20089;-82
2021/04/14 05:11:46;;;;;;;11.88;8.18;;;2.20;99.90;;;;;;5038550;28;20033;-80
2021/04/14 05:14:31;;;;;;;10.82;7.43;;;2.60;99.90;;;;;;5005642;28;20049;-82
2021/04/14 05:20:54;;;;;;;12.48;7.63;;;3.60;32.60;;;;;;5019230;28;20034;-84
2021/04/14 05:23:27;;;;;;;14.25;7.72;;;4.20;1.00;;;;;;4995932;28;20035;-83
2021/04/14 05:25:52;;;;;;;17.13;7.43;;;4.60;99.90;;;;;;5013478;28;20456;-81
2021/04/14 05:28:22;;;;;;;12.10;7.32;;;5.00;1.00;;;;;;5014041;28;20033;-81
2021/04/14 05:31:16;;;;;;;14.60;7.95;;;4.80;99.90;;;;;;5012466;28;20034;-80
2021/04/14 05:33:57;;;;;;;17.50;8.05;;;4.20;99.90;;;;;;5017377;28;20038;-82
2021/04/14 05:36:41;;;;;;;14.30;7.82;;;4.90;99.90;;;;;;5017418;28;20085;-84
2021/04/14 05:39:10;;;;;;;12.95;7.63;;;5.80;72.80;;;;;;5010515;28;20035;-81
2021/04/14 05:41:36;;;;;;;9.77;7.65;;;5.90;93.70;;;;;;5007459;28;20109;-81
2021/04/14 05:44:11;;;;;;;12.75;7.60;;;5.80;1.00;;;;;;4997036;28;20026;-81
2021/04/14 05:46:37;;;;;;;8.88;7.13;;;6.00;99.90;;;;;;5022938;28;20040;-81
2021/04/14 05:49:12;;;;;;;11.63;7.10;;;6.10;99.90;;;;;;5022268;28;20014;-81
2021/04/14 05:54:08;;;;;;;16.27;8.80;;;5.90;1.00;;;;;;5006306;28;20582;-82
2021/04/14 05:56:37;;;;;;;13.95;8.23;;;5.40;1.00;;;;;;5001188;28;20038;-81
2021/04/14 05:59:05;;;;;;;11.80;7.95;;;5.10;99.90;;;;;;5002374;28;20033;-82
2021/04/14 06:01:32;;;;;;;29.30;9.02;;;5.20;24.60;;;;;;4998298;28;20046;-81
2021/04/14 06:03:58;;;;;;;11.48;8.32;;;4.70;51.60;;;;;;5017413;28;20057;-82
2021/04/14 06:06:26;;;;;;;12.30;8.68;;;4.40;99.90;;;;;;5031433;28;20030;-79
2021/04/14 06:08:58;;;;;;;11.55;7.82;;;4.10;99.90;;;;;;5036339;28;20014;-78
2021/04/14 06:11:26;;;;;;;15.52;8.73;;;4.00;99.90;;;;;;5032787;28;20019;-78
2021/04/14 06:13:57;;;;;;;8.65;6.80;;;3.80;1.00;;;;;;5032056;28;20200;-78
2021/04/14 06:16:32;;;;;;;12.95;7.60;;;4.00;99.90;;;;;;5034709;28;20064;-78
2021/04/14 06:19:02;;;;;;;16.05;7.75;;;3.90;99.90;;;;;;5036550;28;20032;-79
2021/04/14 06:21:44;;;;;;;13.27;8.27;;;3.90;99.90;;;;;;5030258;28;20093;-78
2021/04/14 06:24:13;;;;;;;9.65;8.07;;;3.80;1.00;;;;;;5033170;28;20181;-79
2021/04/14 06:26:51;;;;;;;11.70;8.10;;;4.10;99.90;;;;;;5037300;28;20014;-79
2021/04/14 06:29:17;;;;;;;12.35;8.55;;;4.40;99.90;;;;;;5034925;28;20018;-79
2021/04/14 06:31:43;;;;;;;11.93;7.50;;;4.50;99.90;;;;;;5033599;28;20006;-78
2021/04/14 06:34:18;;;;;;;24.00;8.98;;;4.60;99.90;;;;;;5035125;28;20038;-79
2021/04/14 06:36:46;;;;;;;17.98;9.10;;;4.70;99.90;;;;;;5034713;28;20026;-78
2021/04/14 06:39:14;;;;;;;12.07;8.73;;;4.70;99.90;;;;;;5048076;28;20079;-77
2021/04/14 06:42:20;;;;;;;13.38;7.38;;;4.80;99.90;;;;;;5028034;28;20014;-79
2021/04/14 06:45:01;;;;;;;11.63;7.70;;;4.70;99.90;;;;;;5024882;28;20082;-79
2021/04/14 06:47:38;;;;;;;14.27;7.50;;;4.90;99.90;;;;;;5036962;28;20046;-79
2021/04/14 06:50:19;;;;;;;14.30;8.38;;;5.00;99.90;;;;;;5033996;28;20045;-80
2021/04/14 06:53:01;;;;;;;15.88;9.90;;;5.00;98.20;;;;;;5027636;28;20095;-82
2021/04/14 06:55:37;;;;;;;11.57;7.68;;;5.10;55.30;;;;;;5028216;28;20080;-79
2021/04/14 06:58:16;;;;;;;15.10;8.07;;;5.00;99.90;;;;;;5034252;28;20026;-80
2021/04/14 07:01:08;;;;;;;15.20;9.52;;;5.10;60.00;;;;;;5049039;28;20033;-79
2021/04/14 07:03:46;;;;;;;11.30;8.50;;;5.00;48.50;;;;;;5029462;28;20334;-81
2021/04/14 07:06:16;;;;;;;10.30;8.20;;;5.00;88.30;;;;;;5027353;28;20010;-82
2021/04/14 07:08:50;;;;;;;15.05;7.93;;;5.00;11.30;;;;;;5026682;28;20029;-83
2021/04/14 07:11:21;;;;;;;11.80;7.82;;;5.00;99.90;;;;;;5023669;28;20477;-82
2021/04/14 07:13:48;;;;;;;;;;;5.00;92.20;;;;;;5022801;28;20026;-82
2021/04/14 07:16:32;;;;;;;12.80;8.38;;;4.80;99.90;;;;;;5024572;28;19949;-81
2021/04/14 07:19:19;;;;;;;18.23;8.52;;;4.90;99.90;;;;;;5036598;28;20030;-82
2021/04/14 07:22:01;;;;;;;14.38;9.60;;;4.90;99.90;;;;;;5018752;28;20030;-83
2021/04/14 07:24:47;;;;;;;12.13;7.28;;;5.20;99.90;;;;;;5027258;28;20105;-83
2021/04/14 07:27:44;;;;;;;10.75;7.50;;;5.00;99.90;;;;;;5020927;28;20027;-82
2021/04/14 07:30:36;;;;;;;13.50;7.40;;;5.30;99.90;;;;;;5014543;28;20382;-83
2021/04/14 07:33:13;;;;;;;9.70;6.80;;;5.30;99.90;;;;;;5022114;28;20061;-81
2021/04/14 07:35:41;;;;;;;9.07;5.85;;;5.20;99.90;;;;;;5047325;28;20038;-81
2021/04/14 07:38:48;;;;;;;8.95;4.90;;;5.30;99.90;;;;;;5031489;28;20029;-82
2021/04/14 07:41:29;;;;;;;8.38;5.82;;;5.70;1.00;;;;;;5030771;28;20026;-82
2021/04/14 07:44:09;;;;;;;4.80;4.30;;;5.80;99.90;;;;;;5018234;28;20048;-73
2021/04/14 07:46:37;;;;;;;10.30;4.22;;;6.10;1.00;;;;;;5020329;28;20062;-74
2021/04/14 07:49:05;;;;;;;4.22;3.63;;;6.20;1.00;;;;;;5026230;28;20033;-74
2021/04/14 07:51:31;;;;;;;10.23;4.43;;;6.20;1.00;;;;;;5025148;28;20085;-74
2021/04/14 07:54:02;;;;;;;4.25;3.35;;;6.30;99.90;;;;;;5019874;28;20041;-74
2021/04/14 07:56:28;;;;;;;;;;;6.20;99.90;;;;;;5015530;28;20060;-74
2021/04/14 07:59:16;;;;;;;8.35;3.75;;;6.00;99.90;;;;;;5024146;28;19998;-73
2021/04/14 08:02:02;;;;;;;7.90;4.32;;;6.10;99.90;;;;;;5019166;28;20065;-73
2021/04/14 08:04:40;;;;;;;4.68;3.95;;;6.30;1.00;;;;;;5018623;28;20389;-73
2021/04/14 08:07:19;;;;;;;9.57;3.80;;;6.40;1.00;;;;;;5015844;28;20046;-73
2021/04/14 08:09:49;;;;;;;5.82;3.75;;;6.50;1.00;;;;;;5014175;28;20025;-74
2021/04/14 08:12:31;;;;;;;6.70;3.50;;;6.70;47.60;;;;;;5015114;28;20026;-74
2021/04/14 08:15:26;;;;;;;4.97;4.22;;;6.70;19.10;;;;;;5018785;28;20052;-74
2021/04/14 08:17:53;;;;;;;7.05;3.72;;;6.70;99.90;;;;;;5015991;28;20022;-74
2021/04/14 08:20:28;;;;;;;6.22;4.53;;;7.00;16.00;;;;;;5017823;28;20048;-74
2021/04/14 08:23:08;;;;;;;7.97;4.32;;;7.20;22.00;;;;;;5017771;28;20033;-74
2021/04/14 08:25:34;;;;;;;8.10;4.35;;;6.70;1.00;;;;;;5020651;28;20116;-75
2021/04/14 08:28:01;;;;;;;7.68;4.07;;;6.90;99.90;;;;;;5017888;28;20098;-73
2021/04/14 08:30:27;;;;;;;4.65;3.22;;;6.50;21.30;;;;;;5018641;28;20049;-74
2021/04/14 08:32:53;;;;;;;6.38;4.28;;;6.60;99.90;;;;;;5015765;28;20509;-74
2021/04/14 08:35:41;;;;;;;5.38;3.35;;;6.90;91.00;;;;;;5016830;28;20037;-73
2021/04/14 08:38:11;;;;;;;3.00;2.70;;;7.20;7.40;;;;;;5015230;28;20026;-73
2021/04/14 08:40:47;;;;;;;4.20;2.40;;;7.20;99.90;;;;;;5011243;28;20493;-75
2021/04/14 08:43:21;;;;;;;4.97;3.03;;;7.00;99.90;;;;;;5010969;28;20025;-73
2021/04/14 08:45:47;;;;;;;4.72;3.55;;;7.10;1.00;;;;;;5016590;28;20045;-75
2021/04/14 08:48:15;;;;;;;4.38;2.97;;;7.50;99.90;;;;;;5015334;28;20405;-74
2021/04/14 08:50:51;;;;;;;6.40;2.72;;;7.60;49.70;;;;;;5016326;28;20058;-73
2021/04/14 08:53:20;;;;;;;6.22;3.22;;;7.40;1.00;;;;;;5007828;28;20528;-74
2021/04/14 08:55:46;;;;;;;5.25;3.13;;;7.80;1.00;;;;;;5017995;28;20061;-73
2021/04/14 08:58:16;;;;;;;8.38;4.07;;;7.70;99.90;;;;;;5013260;28;20061;-74
2021/04/14 09:00:42;;;;;;;5.93;3.35;;;7.80;99.90;;;;;;5014678;28;20029;-74
2021/04/14 09:03:10;;;;;;;3.88;2.80;;;7.70;99.90;;;;;;5013610;28;20037;-75
2021/04/14 09:05:37;;;;;;;4.03;2.70;;;8.00;99.90;;;;;;5015868;28;20046;-73
2021/04/14 09:08:08;;;;;;;3.92;2.85;;;7.90;99.90;;;;;;5015657;28;20022;-74
2021/04/14 09:10:41;;;;;;;9.95;3.15;;;8.00;91.40;;;;;;5015974;28;20026;-74
2021/04/14 09:13:11;;;;;;;3.28;2.53;;;8.00;99.90;;;;;;5021989;28;20568;-74
2021/04/14 09:15:52;;;;;;;12.43;6.85;;;8.00;89.90;;;;;;5021602;28;20034;-73
2021/04/14 09:18:32;;;;;;;3.95;3.50;;;8.50;1.00;;;;;;5017381;28;20053;-74
2021/04/14 09:21:18;;;;;;;7.30;2.78;;;9.10;99.90;;;;;;5013605;28;20054;-73
2021/04/14 09:24:21;;;;;;;6.30;2.72;;;9.20;99.90;;;;;;5014312;28;20030;-75
2021/04/14 09:26:55;;;;;;;6.20;2.90;;;9.40;99.90;;;;;;5015446;28;20099;-75
2021/04/14 09:29:35;;;;;;;4.22;3.13;;;9.40;99.90;;;;;;5013082;28;20065;-73
2021/04/14 09:32:09;;;;;;;7.60;2.83;;;9.10;99.90;;;;;;5014453;28;20400;-74
2021/04/14 09:34:42;;;;;;;4.43;2.72;;;8.80;99.90;;;;;;5014137;28;20092;-74
2021/04/14 09:37:12;;;;;;;5.35;2.63;;;9.40;99.50;;;;;;5013897;28;20026;-74
2021/04/14 09:39:50;;;;;;;3.28;2.22;;;9.70;1.00;;;;;;5013642;28;20018;-74
2021/04/14 09:42:22;;;;;;;4.63;2.78;;;9.10;1.00;;;;;;5007671;28;20421;-74
2021/04/14 09:44:55;;;;;;;3.20;2.38;;;8.70;1.00;;;;;;5012274;28;20026;-74
2021/04/14 09:47:23;;;;;;;4.22;2.35;;;8.30;1.00;;;;;;5010516;28;20034;-75
2021/04/14 09:49:50;;;;;;;5.13;2.70;;;7.70;1.00;;;;;;5013290;28;20044;-75
2021/04/14 09:52:48;;;;;;;4.80;2.40;;;7.80;1.00;;;;;;5014511;28;20033;-74
2021/04/14 09:55:38;;;;;;;4.53;2.25;;;8.30;1.00;;;;;;5014232;28;20033;-74
2021/04/14 09:58:11;;;;;;;4.85;2.30;;;8.50;1.00;;;;;;5002205;28;20046;-74
2021/04/14 10:00:43;;;;;;;5.15;2.25;;;8.90;99.90;;;;;;5009408;28;20064;-74
2021/04/14 10:03:21;;;;;;;2.85;2.17;;;9.00;99.90;;;;;;5014000;28;20034;-73
2021/04/14 10:05:47;;;;;;;2.95;1.88;;;9.00;99.90;;;;;;5013243;28;20032;-74
2021/04/14 10:08:15;;;;;;;2.33;2.03;;;8.90;99.90;;;;;;5009161;28;20373;-73
2021/04/14 10:10:44;;;;;;;2.72;1.90;;;9.10;99.90;;;;;;5008639;28;20030;-73
2021/04/14 10:13:12;;;;;;;1.35;1.25;;;8.80;99.90;;;;;;5010507;28;20026;-74
2021/04/14 10:15:40;;;;;;;3.72;2.05;;;8.70;99.90;;;;;;5017295;28;20045;-74
2021/04/14 10:18:24;;;;;;;3.40;2.22;;;8.80;99.90;;;;;;5013650;28;20026;-74
2021/04/14 10:20:50;;;;;;;2.42;1.90;;;9.30;99.90;;;;;;5014408;28;20030;-74
2021/04/14 10:23:21;;;;;;;7.25;2.72;;;9.70;99.90;;;;;;5007700;28;20053;-74
2021/04/14 10:25:47;;;;;;;4.13;2.80;;;9.70;99.90;;;;;;5013911;28;20030;-73
2021/04/14 10:28:15;;;;;;;3.17;2.80;;;9.80;99.90;;;;;;5014250;28;20468;-73
2021/04/14 10:30:45;;;;;;;5.32;2.40;;;10.00;99.90;;;;;;5014174;28;20026;-73
2021/04/14 10:33:18;;;;;;;5.65;2.90;;;10.00;99.90;;;;;;5012939;28;20026;-74
2021/04/14 10:35:45;;;;;;;4.18;2.28;;;10.00;99.90;;;;;;5010461;28;20030;-76
2021/04/14 10:38:11;;;;;;;4.45;2.03;;;9.90;99.90;;;;;;5016508;28;20018;-73
2021/04/14 10:40:46;;;;;;;2.70;1.63;;;9.80;99.90;;;;;;5008075;28;20477;-74
2021/04/14 10:43:18;;;;;;;3.65;2.08;;;9.30;99.90;;;;;;5015551;28;20084;-74
2021/04/14 10:45:59;;;;;;;2.40;2.20;;;8.90;99.90;;;;;;5016430;28;20420;-74
2021/04/14 10:48:25;;;;;;;3.50;2.67;;;8.80;1.00;;;;;;5015108;28;20025;-75
2021/04/14 10:51:09;;;;;;;4.68;2.25;;;8.90;1.00;;;;;;5033486;28;20101;-75
2021/04/14 10:53:38;;;;;;;5.13;2.40;;;9.00;1.00;;;;;;5027840;28;20073;-76
2021/04/14 10:56:11;;;;;;;2.35;1.70;;;9.40;99.90;;;;;;5014491;28;20025;-75
2021/04/14 10:58:37;;;;;;;1.52;1.40;;;9.50;99.90;;;;;;5032907;28;20033;-74
2021/04/14 11:01:14;;;;;;;2.90;2.08;;;9.50;99.90;;;;;;5032708;28;20030;-74
2021/04/14 11:03:43;;;;;;;4.15;1.60;;;9.50;99.90;;;;;;5027575;28;20006;-76
2021/04/14 11:06:10;;;;;;;2.00;1.88;;;9.30;99.90;;;;;;5024328;28;20061;-75
2021/04/14 11:08:37;;;;;;;1.90;1.60;;;9.30;99.90;;;;;;5017425;28;20061;-74
2021/04/14 11:11:03;;;;;;;1.88;1.67;;;9.70;99.90;;;;;;5023463;28;20085;-75
2021/04/14 11:13:30;;;;;;;4.40;1.55;;;9.50;99.90;;;;;;5024684;28;20022;-76
2021/04/14 11:15:57;;;;;;;3.00;1.70;;;9.60;99.90;;;;;;5025149;28;20037;-76
2021/04/14 11:18:33;;;;;;;4.75;2.13;;;9.60;99.90;;;;;;5026041;28;20018;-74
2021/04/14 11:21:07;;;;;;;3.42;1.95;;;9.80;99.90;;;;;;5023602;28;20044;-75
2021/04/14 11:23:37;;;;;;;4.05;2.10;;;9.70;99.90;;;;;;5015406;28;20029;-76
2021/04/14 11:26:12;;;;;;;2.67;1.90;;;10.20;99.90;;;;;;5016556;28;20104;-76
2021/04/14 11:28:50;;;;;;;2.42;2.13;;;10.40;99.90;;;;;;5016197;28;21503;-75
2021/04/14 11:31:33;;;;;;;2.03;1.90;;;10.40;99.90;;;;;;5015573;28;20025;-76
2021/04/14 11:34:10;;;;;;;3.65;2.33;;;10.20;99.90;;;;;;5014389;28;20076;-75
2021/04/14 11:36:36;;;;;;;4.70;2.42;;;10.30;99.90;;;;;;5010556;28;20028;-75
2021/04/14 11:39:04;;;;;;;5.22;2.95;;;10.10;99.90;;;;;;5018673;28;20053;-76
2021/04/14 11:41:37;;;;;;;2.50;2.20;;;10.50;99.90;;;;;;5012999;28;20056;-75
2021/04/14 11:44:14;;;;;;;3.40;2.05;;;10.00;99.90;;;;;;5017744;28;20064;-77
2021/04/14 11:46:41;;;;;;;3.60;2.03;;;10.20;99.90;;;;;;5011563;28;20056;-76
2021/04/14 11:49:09;;;;;;;5.25;2.35;;;10.30;99.90;;;;;;5010898;28;20015;-76
2021/04/14 11:51:41;;;;;;;3.83;2.13;;;10.30;99.90;;;;;;5010564;28;20163;-76
2021/04/14 11:54:21;;;;;;;6.18;3.03;;;10.00;99.90;;;;;;5052453;23;20041;-76
2021/04/14 11:57:00;;;;;;;2.13;1.83;;;10.00;99.90;;;;;;5020795;28;20409;-78
2021/04/14 11:59:34;;;;;;;4.70;2.00;;;9.90;99.90;;;;;;5007168;28;20029;-77
2021/04/14 12:02:25;;;;;;;4.05;2.80;;;9.80;99.90;;;;;;5019205;28;20553;-77
2021/04/14 12:05:03;;;;;;;3.03;2.13;;;10.10;99.90;;;;;;4999463;28;20431;-78
2021/04/14 12:07:29;;;;;;;5.43;2.08;;;10.90;99.90;;;;;;4997427;28;20031;-77
2021/04/14 12:09:55;;;;;;;4.22;1.83;;;11.00;99.90;;;;;;4992276;28;20022;-78
2021/04/14 12:12:22;;;;;;;2.47;2.20;;;11.00;99.90;;;;;;5004589;28;20425;-77
2021/04/14 12:14:50;;;;;;;6.70;2.65;;;10.80;99.90;;;;;;5008785;28;20012;-77
2021/04/14 12:17:16;;;;;;;3.63;1.63;;;10.20;99.90;;;;;;5007644;28;20106;-78
2021/04/14 12:19:44;;;;;;;5.90;2.60;;;10.00;99.90;;;;;;5004674;28;20033;-77
2021/04/14 12:22:10;;;;;;;5.68;1.98;;;9.80;99.90;;;;;;5013131;28;20092;-78
2021/04/14 12:24:36;;;;;;;2.47;2.28;;;9.70;99.90;;;;;;5004162;28;20062;-76
2021/04/14 12:27:02;;;;;;;4.63;2.00;;;8.70;1.00;;;;;;5014592;28;20042;-77
2021/04/14 12:29:27;;;;;;;3.03;2.10;;;8.80;93.50;;;;;;5015033;28;20038;-76
2021/04/14 12:31:53;;;;;;;2.92;2.72;;;8.80;99.90;;;;;;5018132;28;20094;-76
2021/04/14 12:34:19;;;;;;;4.07;2.45;;;9.00;70.50;;;;;;5014640;28;20073;-78
2021/04/14 12:36:46;;;;;;;5.60;2.33;;;8.70;77.70;;;;;;5011552;28;20049;-77
2021/04/14 12:39:11;;;;;;;3.08;2.67;;;8.50;99.90;;;;;;5001423;28;20081;-76
2021/04/14 12:41:38;;;;;;;2.17;1.90;;;8.50;99.90;;;;;;5003048;28;20018;-77
2021/04/14 12:44:06;;;;;;;2.38;2.17;;;7.80;1.00;;;;;;5005155;28;20121;-78
2021/04/14 12:46:31;;;;;;;3.30;2.13;;;7.80;81.20;;;;;;5000986;28;20030;-80
2021/04/14 12:48:57;;;;;;;2.80;1.95;;;7.70;99.90;;;;;;5005033;28;20054;-79
2021/04/14 12:51:47;;;;;;;2.40;2.20;;;8.30;99.90;;;;;;5008975;28;20022;-79
2021/04/14 12:54:38;;;;;;;4.32;2.30;;;8.10;1.00;;;;;;5000842;28;20046;-78
2021/04/14 12:57:08;;;;;;;;;;;8.30;99.90;;;;;;5001687;28;20046;-79
2021/04/14 12:59:41;;;;;;;5.50;2.53;;;8.10;1.00;;;;;;4996776;28;19948;-78
2021/04/14 13:02:23;;;;;;;2.65;1.75;;;7.50;82.60;;;;;;5005932;28;20035;-78
2021/04/14 13:05:20;;;;;;;2.30;2.00;;;7.40;54.80;;;;;;4999263;28;20493;-77
2021/04/14 13:07:57;;;;;;;4.47;1.90;;;7.70;99.90;;;;;;4999840;28;20156;-78
2021/04/14 13:10:30;;;;;;;4.82;2.63;;;7.50;99.90;;;;;;4998373;28;20030;-77
2021/04/14 13:12:55;;;;;;;4.85;2.50;;;7.60;1.00;;;;;;5001631;28;20021;-75
2021/04/14 13:15:39;;;;;;;3.97;2.50;;;7.70;99.90;;;;;;5025797;28;20037;-77
2021/04/14 13:18:05;;;;;;;4.18;2.58;;;7.80;99.90;;;;;;5007904;28;20022;-77
2021/04/14 13:20:31;;;;;;;2.25;2.05;;;7.90;1.00;;;;;;5008487;28;20022;-75
2021/04/14 13:22:59;;;;;;;4.05;2.30;;;8.00;1.00;;;;;;5002820;28;20044;-74
2021/04/14 13:25:40;;;;;;;3.78;2.75;;;8.00;99.90;;;;;;5001150;28;20473;-74
2021/04/14 13:28:21;;;;;;;2.40;2.13;;;8.30;99.90;;;;;;4993627;28;20493;-74
2021/04/14 13:30:59;;;;;;;7.20;2.00;;;8.70;99.90;;;;;;4990754;28;20061;-74
2021/04/14 13:33:44;;;;;;;2.90;2.25;;;9.30;96.10;;;;;;4996570;28;20125;-75
2021/04/14 13:36:20;;;;;;;4.32;2.08;;;9.50;1.00;;;;;;4990215;28;20050;-75
2021/04/14 13:38:49;;;;;;;2.92;2.22;;;9.80;1.00;;;;;;4990952;28;20030;-75
2021/04/14 13:41:37;;;;;;;2.38;2.10;;;9.80;1.00;;;;;;4991520;28;20030;-75